Time;durP1;ratioP1;P1;durP2;ratioP2;P2;SDS_P1;SDS_P2;PMS_P1;PMS_P2;Temp;Humidity;BMP_temperature;BMP_pressure;BME280_temperature;BME280_humidity;BME280_pressure;Samples;Min_cycle;Max_cycle;Signal;HPM_P1;HPM_P2
2023/02/18 00:01:31;;;;;;;0.40;0.30;;;10.70;99.90;;;;;;5074825;28;20847;-83
2023/02/18 00:03:59;;;;;;;0.70;0.40;;;10.70;99.90;;;;;;5074418;28;20454;-83
2023/02/18 00:06:29;;;;;;;0.30;0.30;;;10.70;99.90;;;;;;5073979;28;20476;-83
2023/02/18 00:09:00;;;;;;;0.40;0.40;;;10.70;99.90;;;;;;5074133;28;20935;-83
2023/02/18 00:11:28;;;;;;;0.40;0.30;;;10.80;99.90;;;;;;5074280;28;20487;-83
2023/02/18 00:13:56;;;;;;;0.40;0.40;;;10.80;99.90;;;;;;5073995;28;20963;-83
2023/02/18 00:16:25;;;;;;;0.40;0.30;;;10.90;99.90;;;;;;5074120;28;20470;-83
2023/02/18 00:18:54;;;;;;;0.40;0.40;;;10.90;99.90;;;;;;5074121;28;20452;-83
2023/02/18 00:21:21;;;;;;;0.53;0.53;;;10.90;99.90;;;;;;5074600;28;20980;-83
2023/02/18 00:23:49;;;;;;;0.43;0.40;;;10.80;99.90;;;;;;5073984;28;20460;-83
2023/02/18 00:26:18;;;;;;;0.30;0.30;;;10.80;99.90;;;;;;5073659;28;20499;-83
2023/02/18 00:28:47;;;;;;;0.33;0.30;;;10.80;99.90;;;;;;5073871;28;20457;-83
2023/02/18 00:31:17;;;;;;;0.40;0.30;;;10.80;99.90;;;;;;5073603;28;20571;-83
2023/02/18 00:33:44;;;;;;;0.40;0.40;;;10.90;99.90;;;;;;5073711;28;20901;-83
2023/02/18 00:36:13;;;;;;;0.40;0.30;;;10.80;99.90;;;;;;5073304;28;20805;-83
2023/02/18 00:38:44;;;;;;;0.30;0.27;;;10.80;99.90;;;;;;5073864;28;20426;-83
2023/02/18 00:41:12;;;;;;;0.50;0.30;;;10.80;99.90;;;;;;5073753;28;20462;-83
2023/02/18 00:43:39;;;;;;;0.30;0.30;;;10.90;99.90;;;;;;5073719;28;20445;-83
2023/02/18 00:46:06;;;;;;;0.40;0.30;;;10.80;99.90;;;;;;5073614;28;20449;-83
2023/02/18 00:48:33;;;;;;;0.37;0.30;;;10.90;99.90;;;;;;5073702;28;20452;-83
2023/02/18 00:51:00;;;;;;;0.40;0.30;;;10.80;99.90;;;;;;5073642;28;20456;-84
2023/02/18 00:53:28;;;;;;;0.30;0.30;;;10.80;99.90;;;;;;5073617;28;20456;-83
2023/02/18 00:55:54;;;;;;;0.30;0.30;;;10.90;99.90;;;;;;5073622;28;20454;-83
2023/02/18 00:58:22;;;;;;;0.40;0.30;;;10.80;99.90;;;;;;5073536;28;20472;-83
2023/02/18 01:00:49;;;;;;;0.30;0.30;;;10.80;99.90;;;;;;5073503;28;20473;-83
2023/02/18 01:03:16;;;;;;;1.10;0.30;;;10.80;99.90;;;;;;5073495;28;20446;-83
2023/02/18 01:05:44;;;;;;;0.47;0.33;;;10.90;99.90;;;;;;5073482;28;20452;-84
2023/02/18 01:08:11;;;;;;;0.30;0.30;;;10.90;99.90;;;;;;5073081;28;20466;-83
2023/02/18 01:10:43;;;;;;;0.40;0.40;;;10.90;99.90;;;;;;5073101;28;20795;-83
2023/02/18 01:13:11;;;;;;;0.30;0.30;;;10.90;99.90;;;;;;5073209;28;20430;-83
2023/02/18 01:15:40;;;;;;;0.30;0.30;;;10.90;99.90;;;;;;5073002;28;20452;-83
2023/02/18 01:18:07;;;;;;;0.50;0.30;;;10.90;99.90;;;;;;5073228;28;20469;-83
2023/02/18 01:20:34;;;;;;;0.40;0.40;;;10.80;99.90;;;;;;5073265;28;20445;-83
2023/02/18 01:23:01;;;;;;;0.50;0.40;;;10.70;99.90;;;;;;5073280;28;20460;-83
2023/02/18 01:25:27;;;;;;;0.40;0.30;;;10.70;99.90;;;;;;5072955;28;20948;-83
2023/02/18 01:27:54;;;;;;;0.40;0.30;;;10.60;99.90;;;;;;5073193;28;20461;-84
2023/02/18 01:30:21;;;;;;;0.40;0.40;;;10.50;99.90;;;;;;5073045;28;20964;-83
2023/02/18 01:32:49;;;;;;;0.30;0.30;;;10.40;99.90;;;;;;5073157;28;20479;-83
2023/02/18 01:35:18;;;;;;;0.40;0.40;;;10.50;99.90;;;;;;5072739;28;20831;-83
2023/02/18 01:37:46;;;;;;;0.40;0.33;;;10.50;99.90;;;;;;5073086;28;20485;-83
2023/02/18 01:40:15;;;;;;;0.63;0.63;;;10.40;99.90;;;;;;5077249;28;20446;-83
2023/02/18 01:42:43;;;;;;;0.40;0.40;;;10.40;99.90;;;;;;5077119;28;20488;-84
2023/02/18 01:45:45;;;;;;;0.40;0.30;;;10.40;99.90;;;;;;5076793;28;20929;-83
2023/02/18 01:48:17;;;;;;;0.33;0.30;;;10.40;99.90;;;;;;5076933;28;20552;-83
2023/02/18 01:50:56;;;;;;;0.37;0.30;;;10.30;99.90;;;;;;5077044;28;20433;-83
2023/02/18 01:53:28;;;;;;;1.53;0.50;;;10.20;99.90;;;;;;5077061;28;20426;-83
2023/02/18 01:55:55;;;;;;;0.30;0.30;;;10.20;99.90;;;;;;5076649;28;20940;-83
2023/02/18 01:58:23;;;;;;;0.40;0.33;;;10.20;99.90;;;;;;5076763;28;20469;-83
2023/02/18 02:00:50;;;;;;;0.40;0.30;;;10.20;99.90;;;;;;5076802;28;20477;-83
2023/02/18 02:03:18;;;;;;;1.10;0.40;;;10.30;99.90;;;;;;5076793;28;20449;-83
2023/02/18 02:05:44;;;;;;;0.40;0.30;;;10.30;99.90;;;;;;5076431;28;20971;-83
2023/02/18 02:08:11;;;;;;;0.40;0.30;;;10.30;99.90;;;;;;5076661;28;20833;-83
2023/02/18 02:10:52;;;;;;;0.33;0.30;;;10.30;99.90;;;;;;5076631;28;20449;-83
2023/02/18 02:13:26;;;;;;;0.30;0.30;;;10.20;99.90;;;;;;5076563;28;20893;-83
2023/02/18 02:15:59;;;;;;;0.93;0.37;;;10.20;99.90;;;;;;5076526;28;20443;-83
2023/02/18 02:18:49;;;;;;;0.40;0.30;;;10.20;99.90;;;;;;5076483;28;20430;-84
2023/02/18 02:21:48;;;;;;;1.10;0.67;;;10.10;99.90;;;;;;5076042;28;21011;-83
2023/02/18 02:24:45;;;;;;;0.43;0.33;;;10.00;99.90;;;;;;5076349;28;20457;-83
2023/02/18 02:27:21;;;;;;;0.30;0.30;;;10.00;99.90;;;;;;5076247;28;20836;-83
2023/02/18 02:30:26;;;;;;;0.77;0.57;;;9.90;99.90;;;;;;5076345;28;20440;-83
2023/02/18 02:33:23;;;;;;;0.70;0.30;;;9.90;99.90;;;;;;5076297;28;20422;-83
2023/02/18 02:35:57;;;;;;;0.40;0.30;;;9.80;99.90;;;;;;5076261;28;20457;-83
2023/02/18 02:38:30;;;;;;;0.37;0.30;;;9.80;99.90;;;;;;5075736;28;20476;-83
2023/02/18 02:41:08;;;;;;;0.40;0.40;;;9.80;99.90;;;;;;5076127;28;20438;-83
2023/02/18 02:43:41;;;;;;;0.40;0.30;;;9.80;99.90;;;;;;5075744;28;20935;-83
2023/02/18 02:46:14;;;;;;;0.30;0.30;;;9.80;99.90;;;;;;5075929;28;20417;-83
2023/02/18 02:48:47;;;;;;;0.50;0.37;;;9.90;99.90;;;;;;5075730;28;20426;-83
2023/02/18 02:51:18;;;;;;;0.70;0.40;;;9.90;99.90;;;;;;5075888;28;20434;-83
2023/02/18 02:53:45;;;;;;;0.40;0.40;;;9.90;99.90;;;;;;5075562;28;20465;-83
2023/02/18 02:56:15;;;;;;;0.40;0.37;;;9.90;99.90;;;;;;5075705;28;20445;-83
2023/02/18 02:58:43;;;;;;;0.40;0.30;;;9.90;99.90;;;;;;5075424;28;20445;-83
2023/02/18 03:01:25;;;;;;;0.40;0.30;;;9.90;99.90;;;;;;5075588;28;20445;-83
2023/02/18 03:04:16;;;;;;;0.50;0.50;;;10.00;99.90;;;;;;5075637;28;20438;-83
2023/02/18 03:07:01;;;;;;;0.30;0.30;;;10.00;99.90;;;;;;5075287;28;20976;-84
2023/02/18 03:09:40;;;;;;;0.30;0.30;;;9.90;99.90;;;;;;5075619;28;20430;-83
2023/02/18 03:12:13;;;;;;;0.30;0.30;;;10.00;99.90;;;;;;5075562;28;20437;-83
2023/02/18 03:14:47;;;;;;;0.40;0.30;;;10.10;99.90;;;;;;5075515;28;20434;-83
2023/02/18 03:17:23;;;;;;;0.40;0.40;;;10.10;99.90;;;;;;5075369;28;20831;-83
2023/02/18 03:19:55;;;;;;;0.30;0.30;;;10.10;99.90;;;;;;5075344;28;20421;-83
2023/02/18 03:22:27;;;;;;;0.40;0.33;;;10.20;99.90;;;;;;5075262;28;20465;-83
2023/02/18 03:24:56;;;;;;;4.13;0.33;;;10.20;99.90;;;;;;5075271;28;20430;-83
2023/02/18 03:27:27;;;;;;;0.30;0.30;;;10.20;99.90;;;;;;5074816;28;20462;-83
2023/02/18 03:29:57;;;;;;;0.40;0.30;;;10.30;99.90;;;;;;5075187;28;20411;-83
2023/02/18 03:32:27;;;;;;;0.70;0.50;;;10.30;99.90;;;;;;5075169;28;20785;-83
2023/02/18 03:34:59;;;;;;;0.50;0.50;;;10.30;99.90;;;;;;5074982;28;20442;-83
2023/02/18 03:37:27;;;;;;;0.40;0.30;;;10.30;99.90;;;;;;5074492;28;20481;-83
2023/02/18 03:39:59;;;;;;;0.40;0.40;;;10.20;99.90;;;;;;5074905;28;20793;-83
2023/02/18 03:42:27;;;;;;;0.63;0.63;;;10.10;99.90;;;;;;5074584;28;20972;-83
2023/02/18 03:44:54;;;;;;;0.40;0.30;;;10.00;99.90;;;;;;5074881;28;20495;-83
2023/02/18 03:47:20;;;;;;;0.40;0.30;;;10.00;99.90;;;;;;5074691;28;20480;-83
2023/02/18 03:49:47;;;;;;;0.40;0.30;;;9.90;99.90;;;;;;5074457;28;20822;-83
2023/02/18 03:52:14;;;;;;;1.20;0.37;;;9.80;99.90;;;;;;5074729;28;20449;-83
2023/02/18 03:54:42;;;;;;;0.30;0.30;;;9.70;99.90;;;;;;5074734;28;20457;-83
2023/02/18 03:57:09;;;;;;;0.40;0.30;;;9.70;99.90;;;;;;5074487;28;20484;-83
2023/02/18 03:59:36;;;;;;;0.70;0.30;;;9.60;99.90;;;;;;5074600;28;20445;-83
2023/02/18 04:02:02;;;;;;;0.80;0.47;;;9.60;99.90;;;;;;5073892;28;20524;-83
2023/02/18 04:04:29;;;;;;;0.57;0.57;;;9.60;99.90;;;;;;5074873;28;20783;-83
2023/02/18 04:06:56;;;;;;;0.40;0.30;;;9.60;99.90;;;;;;5074302;28;20531;-83
2023/02/18 04:09:23;;;;;;;0.50;0.40;;;9.60;99.90;;;;;;5073999;28;20964;-83
2023/02/18 04:11:51;;;;;;;0.30;0.30;;;9.50;99.90;;;;;;5074294;28;20453;-83
2023/02/18 04:14:18;;;;;;;0.40;0.40;;;9.40;99.90;;;;;;5074202;28;20473;-83
2023/02/18 04:16:44;;;;;;;0.40;0.40;;;9.40;99.90;;;;;;5073926;28;21003;-83
2023/02/18 04:19:11;;;;;;;0.40;0.40;;;9.30;99.90;;;;;;5074120;28;20453;-83
2023/02/18 04:21:38;;;;;;;0.40;0.30;;;9.30;99.90;;;;;;5074111;28;20468;-83
2023/02/18 04:24:05;;;;;;;0.30;0.30;;;9.30;99.90;;;;;;5074030;28;20468;-83
2023/02/18 04:26:32;;;;;;;0.30;0.30;;;9.30;99.90;;;;;;5074001;28;20549;-83
2023/02/18 04:29:00;;;;;;;0.50;0.30;;;9.30;99.90;;;;;;5074633;28;20465;-83
2023/02/18 04:31:27;;;;;;;0.33;0.30;;;9.30;99.90;;;;;;5074224;28;20453;-83
2023/02/18 04:33:53;;;;;;;0.50;0.40;;;9.30;99.90;;;;;;5073938;28;20457;-83
2023/02/18 04:36:20;;;;;;;0.40;0.30;;;9.30;99.90;;;;;;5073576;28;20485;-83
2023/02/18 04:38:47;;;;;;;0.30;0.30;;;9.30;99.90;;;;;;5073604;28;20880;-83
2023/02/18 04:41:14;;;;;;;0.30;0.30;;;9.30;99.90;;;;;;5073539;28;20975;-83
2023/02/18 04:43:40;;;;;;;0.30;0.30;;;9.30;99.90;;;;;;5073677;28;20482;-83
2023/02/18 04:46:09;;;;;;;0.40;0.30;;;9.30;99.90;;;;;;5073673;28;20453;-83
2023/02/18 04:48:35;;;;;;;0.30;0.30;;;9.30;99.90;;;;;;5073653;28;20449;-82
2023/02/18 04:51:02;;;;;;;0.47;0.47;;;9.30;99.90;;;;;;5073698;28;20446;-83
2023/02/18 04:53:29;;;;;;;0.40;0.30;;;9.40;99.90;;;;;;5073692;28;20438;-83
2023/02/18 04:55:56;;;;;;;0.40;0.30;;;9.30;99.90;;;;;;5073569;28;20448;-83
2023/02/18 04:58:23;;;;;;;0.40;0.30;;;9.30;99.90;;;;;;5073169;28;20844;-83
2023/02/18 05:00:49;;;;;;;0.30;0.30;;;9.40;99.90;;;;;;5073588;28;20476;-83
2023/02/18 05:03:18;;;;;;;0.83;0.47;;;9.30;99.90;;;;;;5073392;28;20478;-83
2023/02/18 05:05:45;;;;;;;0.50;0.40;;;9.30;99.90;;;;;;5073496;28;20492;-83
2023/02/18 05:08:12;;;;;;;0.40;0.30;;;9.30;99.90;;;;;;5073287;28;20876;-83
2023/02/18 05:10:39;;;;;;;0.40;0.33;;;9.30;99.90;;;;;;5073649;28;20457;-83
2023/02/18 05:13:06;;;;;;;0.40;0.30;;;9.40;99.90;;;;;;5073420;28;20434;-83
2023/02/18 05:15:33;;;;;;;0.40;0.30;;;9.40;99.90;;;;;;5073306;28;20448;-83
2023/02/18 05:17:59;;;;;;;0.30;0.30;;;9.50;99.90;;;;;;5073300;28;20465;-83
2023/02/18 05:20:28;;;;;;;1.33;0.50;;;9.60;99.90;;;;;;5073362;28;20450;-83
2023/02/18 05:22:55;;;;;;;0.40;0.30;;;9.60;99.90;;;;;;5072969;28;21004;-83
2023/02/18 05:25:22;;;;;;;0.40;0.33;;;9.70;99.90;;;;;;5073362;28;20452;-83
2023/02/18 05:27:48;;;;;;;0.60;0.40;;;9.70;99.90;;;;;;5073794;28;20469;-83
2023/02/18 05:30:15;;;;;;;0.30;0.30;;;9.80;99.90;;;;;;5073277;28;20445;-83
2023/02/18 05:32:42;;;;;;;0.40;0.40;;;9.80;99.90;;;;;;5073162;28;20446;-83
2023/02/18 05:35:09;;;;;;;0.50;0.40;;;9.70;99.90;;;;;;5073190;28;20441;-83
2023/02/18 05:37:37;;;;;;;0.40;0.30;;;9.70;99.90;;;;;;5072721;28;20485;-83
2023/02/18 05:40:05;;;;;;;0.43;0.37;;;9.80;99.90;;;;;;5073522;28;20952;-83
2023/02/18 05:42:32;;;;;;;0.30;0.30;;;9.90;99.90;;;;;;5073074;28;20923;-83
2023/02/18 05:44:59;;;;;;;0.30;0.30;;;9.90;99.90;;;;;;5072813;28;20862;-83
2023/02/18 05:47:25;;;;;;;0.40;0.40;;;9.90;99.90;;;;;;5073079;28;20468;-83
2023/02/18 05:49:54;;;;;;;0.40;0.40;;;9.90;99.90;;;;;;5073004;28;20458;-82
2023/02/18 05:52:21;;;;;;;0.40;0.33;;;9.80;99.90;;;;;;5072674;28;20485;-83
2023/02/18 05:54:49;;;;;;;2.07;0.43;;;9.90;99.90;;;;;;5073030;28;20445;-83
2023/02/18 05:57:16;;;;;;;0.40;0.40;;;9.90;99.90;;;;;;5073266;28;20469;-83
2023/02/18 05:59:43;;;;;;;0.30;0.30;;;9.90;99.90;;;;;;5073008;28;20454;-83
2023/02/18 06:02:10;;;;;;;0.30;0.30;;;10.00;99.90;;;;;;5072799;28;20457;-83
2023/02/18 06:04:38;;;;;;;1.07;0.63;;;9.90;99.90;;;;;;5072916;28;20450;-83
2023/02/18 06:07:04;;;;;;;0.30;0.30;;;9.90;99.90;;;;;;5072742;28;20473;-83
2023/02/18 06:09:31;;;;;;;0.30;0.30;;;9.80;99.90;;;;;;5072794;28;20460;-83
2023/02/18 06:11:59;;;;;;;1.60;0.43;;;9.80;99.90;;;;;;5072604;28;20437;-83
2023/02/18 06:14:26;;;;;;;0.60;0.30;;;9.80;99.90;;;;;;5072796;28;20456;-83
2023/02/18 06:16:53;;;;;;;0.30;0.20;;;9.70;99.90;;;;;;5072418;28;21011;-84
2023/02/18 06:19:20;;;;;;;0.40;0.30;;;9.70;99.90;;;;;;5073659;28;20449;-84
2023/02/18 06:21:46;;;;;;;0.60;0.40;;;9.70;99.90;;;;;;5072764;28;20830;-84
2023/02/18 06:24:13;;;;;;;1.50;0.40;;;9.60;99.90;;;;;;5073752;28;20485;-84
2023/02/18 06:26:40;;;;;;;0.37;0.30;;;9.60;99.90;;;;;;5076367;28;20489;-84
2023/02/18 06:29:08;;;;;;;0.30;0.20;;;9.50;99.90;;;;;;5076060;28;20959;-84
2023/02/18 06:31:35;;;;;;;2.77;0.40;;;9.50;99.90;;;;;;5075909;28;20963;-84
2023/02/18 06:34:01;;;;;;;0.30;0.30;;;9.50;99.90;;;;;;5076201;28;20441;-84
2023/02/18 06:36:28;;;;;;;0.40;0.30;;;9.50;99.90;;;;;;5075890;28;20500;-84
2023/02/18 06:38:56;;;;;;;0.40;0.30;;;9.60;99.90;;;;;;5076223;28;20445;-83
2023/02/18 06:41:24;;;;;;;0.40;0.37;;;9.60;99.90;;;;;;5076053;28;20446;-84
2023/02/18 06:43:50;;;;;;;0.43;0.40;;;9.70;99.90;;;;;;5076028;28;20481;-84
2023/02/18 06:46:19;;;;;;;1.13;0.40;;;9.70;99.90;;;;;;5076467;28;21032;-84
2023/02/18 06:48:46;;;;;;;0.30;0.30;;;9.80;99.90;;;;;;5076020;28;20445;-84
2023/02/18 06:51:14;;;;;;;0.80;0.40;;;9.70;99.90;;;;;;5075662;28;20968;-84
2023/02/18 06:53:41;;;;;;;0.30;0.30;;;9.70;99.90;;;;;;5075900;28;20449;-84
2023/02/18 06:56:08;;;;;;;0.40;0.30;;;9.80;99.90;;;;;;5075411;28;20452;-84
2023/02/18 06:58:35;;;;;;;0.40;0.30;;;9.80;99.90;;;;;;5075968;28;20449;-84
2023/02/18 07:01:02;;;;;;;0.30;0.30;;;9.80;99.90;;;;;;5075402;28;20825;-84
2023/02/18 07:03:30;;;;;;;0.40;0.30;;;9.90;99.90;;;;;;5075982;28;20481;-84
2023/02/18 07:05:57;;;;;;;0.33;0.33;;;9.90;99.90;;;;;;5075701;28;20446;-84
2023/02/18 07:08:24;;;;;;;1.17;0.47;;;9.90;99.90;;;;;;5075499;28;20481;-84
2023/02/18 07:10:51;;;;;;;1.70;0.40;;;9.90;99.90;;;;;;5075546;28;20451;-84
2023/02/18 07:13:17;;;;;;;0.40;0.30;;;10.00;99.90;;;;;;5075480;28;20445;-84
2023/02/18 07:15:44;;;;;;;0.50;0.40;;;10.00;99.90;;;;;;5075349;28;20461;-84
2023/02/18 07:18:11;;;;;;;0.30;0.30;;;10.10;99.90;;;;;;5075355;28;20465;-84
2023/02/18 07:20:39;;;;;;;0.70;0.30;;;10.20;99.90;;;;;;5075409;28;20453;-83
2023/02/18 07:23:06;;;;;;;0.30;0.30;;;10.30;99.90;;;;;;5074955;28;20481;-84
2023/02/18 07:25:32;;;;;;;0.40;0.30;;;10.30;99.90;;;;;;5075234;28;20450;-84
2023/02/18 07:27:59;;;;;;;0.70;0.50;;;10.40;99.90;;;;;;5075065;28;20473;-84
2023/02/18 07:30:26;;;;;;;1.07;0.60;;;10.40;99.90;;;;;;5075229;28;20453;-83
2023/02/18 07:32:53;;;;;;;0.50;0.50;;;10.50;99.90;;;;;;5074984;28;20457;-84
2023/02/18 07:35:20;;;;;;;0.40;0.30;;;10.60;99.90;;;;;;5073994;28;20941;-84
2023/02/18 07:37:49;;;;;;;0.50;0.40;;;10.60;99.90;;;;;;5074295;28;21061;-84
2023/02/18 07:40:18;;;;;;;0.40;0.30;;;10.70;99.90;;;;;;5074970;28;20480;-84
2023/02/18 07:42:45;;;;;;;0.97;0.50;;;10.80;99.90;;;;;;5074669;28;20477;-84
2023/02/18 07:45:12;;;;;;;0.30;0.20;;;10.90;99.90;;;;;;5074598;28;20941;-84
2023/02/18 07:47:40;;;;;;;0.33;0.33;;;11.00;99.90;;;;;;5074763;28;20474;-84
2023/02/18 07:50:08;;;;;;;0.40;0.30;;;11.00;99.90;;;;;;5074790;28;20453;-84
2023/02/18 07:52:35;;;;;;;0.30;0.30;;;11.20;99.90;;;;;;5074450;28;20434;-84
2023/02/18 07:55:03;;;;;;;0.60;0.40;;;11.30;99.90;;;;;;5074691;28;20456;-84
2023/02/18 07:57:31;;;;;;;1.10;0.50;;;11.40;99.90;;;;;;5074524;28;20470;-84
2023/02/18 07:59:58;;;;;;;1.53;0.40;;;11.40;99.90;;;;;;5074244;28;20945;-83
2023/02/18 08:02:25;;;;;;;0.40;0.30;;;11.40;99.90;;;;;;5074134;28;20449;-84
2023/02/18 08:04:51;;;;;;;0.43;0.30;;;11.50;99.90;;;;;;5074410;28;20477;-83
2023/02/18 08:07:20;;;;;;;0.40;0.30;;;11.50;99.90;;;;;;5074531;28;20469;-84
2023/02/18 08:09:47;;;;;;;1.37;0.57;;;11.60;99.90;;;;;;5074555;28;20457;-84
2023/02/18 08:12:16;;;;;;;0.50;0.50;;;11.60;99.90;;;;;;5074388;28;21007;-84
2023/02/18 08:14:42;;;;;;;0.40;0.40;;;11.70;99.90;;;;;;5074332;28;20448;-84
2023/02/18 08:17:09;;;;;;;0.30;0.30;;;11.70;99.90;;;;;;5074234;28;20470;-83
2023/02/18 08:19:36;;;;;;;0.70;0.33;;;11.70;99.90;;;;;;5073927;28;20449;-84
2023/02/18 08:22:03;;;;;;;0.50;0.37;;;11.70;99.90;;;;;;5073868;28;20449;-83
2023/02/18 08:24:30;;;;;;;0.30;0.30;;;11.80;99.90;;;;;;5074127;28;20488;-84
2023/02/18 08:26:56;;;;;;;0.40;0.40;;;11.90;99.90;;;;;;5074278;28;21039;-84
2023/02/18 08:29:24;;;;;;;0.30;0.30;;;12.00;99.90;;;;;;5074186;28;20457;-84
2023/02/18 08:31:53;;;;;;;0.30;0.30;;;12.10;99.90;;;;;;5073711;28;20456;-83
2023/02/18 08:34:19;;;;;;;0.43;0.43;;;12.20;99.90;;;;;;5073938;28;20448;-83
2023/02/18 08:36:46;;;;;;;0.40;0.40;;;12.20;99.90;;;;;;5073719;28;20492;-83
2023/02/18 08:39:13;;;;;;;0.40;0.40;;;12.30;99.90;;;;;;5073743;28;20429;-83
2023/02/18 08:41:40;;;;;;;0.40;0.40;;;12.30;99.90;;;;;;5073485;28;20445;-83
2023/02/18 08:44:06;;;;;;;0.60;0.30;;;12.40;99.90;;;;;;5073388;28;20477;-83
2023/02/18 08:46:34;;;;;;;0.60;0.37;;;12.40;99.90;;;;;;5073387;28;20469;-83
2023/02/18 08:49:01;;;;;;;0.30;0.30;;;12.40;99.90;;;;;;5073680;28;20461;-83
2023/02/18 08:51:28;;;;;;;0.40;0.30;;;12.50;99.90;;;;;;5073625;28;20445;-83
2023/02/18 08:53:55;;;;;;;1.33;0.40;;;12.50;99.90;;;;;;5073631;28;20819;-83
2023/02/18 08:56:22;;;;;;;0.50;0.40;;;12.70;99.90;;;;;;5073430;28;20470;-83
2023/02/18 08:58:49;;;;;;;0.30;0.30;;;12.90;99.90;;;;;;5073174;28;20455;-83
2023/02/18 09:01:16;;;;;;;0.30;0.30;;;13.00;99.90;;;;;;5073495;28;20453;-83
2023/02/18 09:03:44;;;;;;;2.97;0.50;;;13.20;99.90;;;;;;5073347;28;20529;-83
2023/02/18 09:06:10;;;;;;;1.13;0.50;;;13.40;99.90;;;;;;5073386;28;20441;-83
2023/02/18 09:08:37;;;;;;;0.30;0.27;;;13.50;99.90;;;;;;5073510;28;20449;-83
2023/02/18 09:11:04;;;;;;;0.83;0.30;;;13.40;99.90;;;;;;5073086;28;21047;-83
2023/02/18 09:13:32;;;;;;;0.60;0.60;;;13.40;99.90;;;;;;5073443;28;20454;-83
2023/02/18 09:16:02;;;;;;;0.40;0.40;;;13.30;99.90;;;;;;5073370;28;20479;-83
2023/02/18 09:18:28;;;;;;;0.97;0.40;;;13.30;99.90;;;;;;5074166;28;20808;-83
2023/02/18 09:20:58;;;;;;;1.07;0.43;;;13.30;99.90;;;;;;5073176;28;20457;-83
2023/02/18 09:23:25;;;;;;;0.53;0.40;;;13.30;99.90;;;;;;5073152;28;20504;-83
2023/02/18 09:25:52;;;;;;;0.47;0.47;;;13.60;99.90;;;;;;5073987;28;20792;-83
2023/02/18 09:28:19;;;;;;;0.40;0.40;;;14.20;99.90;;;;;;5073305;28;20469;-83
2023/02/18 09:30:45;;;;;;;0.47;0.30;;;14.80;99.90;;;;;;5073312;28;20450;-83
2023/02/18 09:33:12;;;;;;;0.70;0.40;;;15.50;99.90;;;;;;5073316;28;20502;-83
2023/02/18 09:35:40;;;;;;;1.17;0.40;;;15.80;99.90;;;;;;5073223;28;20453;-83
2023/02/18 09:38:09;;;;;;;0.40;0.40;;;15.90;99.90;;;;;;5072682;28;20546;-83
2023/02/18 09:40:39;;;;;;;0.30;0.30;;;15.60;99.90;;;;;;5073170;28;20842;-83
2023/02/18 09:43:07;;;;;;;1.50;0.40;;;15.10;99.90;;;;;;5072881;28;20422;-83
2023/02/18 09:45:34;;;;;;;0.40;0.20;;;14.80;99.90;;;;;;5072822;28;20909;-83
2023/02/18 09:48:03;;;;;;;0.60;0.30;;;14.50;99.90;;;;;;5072727;28;21019;-83
2023/02/18 09:50:33;;;;;;;1.13;0.30;;;14.30;99.90;;;;;;5073013;28;20476;-83
2023/02/18 09:53:03;;;;;;;0.30;0.27;;;14.10;99.90;;;;;;5073033;28;20820;-81
2023/02/18 09:55:37;;;;;;;0.63;0.40;;;14.00;99.90;;;;;;5072721;28;20931;-81
2023/02/18 09:58:06;;;;;;;0.40;0.40;;;13.80;99.90;;;;;;5073008;28;20472;-81
2023/02/18 10:00:40;;;;;;;0.40;0.40;;;13.70;99.90;;;;;;5076160;28;20445;-82
2023/02/18 10:03:12;;;;;;;0.40;0.30;;;13.50;99.90;;;;;;5076937;28;20433;-83
2023/02/18 10:05:46;;;;;;;0.40;0.30;;;13.40;99.90;;;;;;5076772;28;20425;-83
2023/02/18 10:08:21;;;;;;;0.57;0.40;;;13.20;99.90;;;;;;5076715;28;20469;-83
2023/02/18 10:10:49;;;;;;;0.30;0.30;;;13.00;99.90;;;;;;5076709;28;20432;-84
2023/02/18 10:13:20;;;;;;;0.47;0.37;;;12.90;99.90;;;;;;5076668;28;20449;-84
2023/02/18 10:15:47;;;;;;;0.40;0.30;;;13.00;99.90;;;;;;5076692;28;20434;-84
2023/02/18 10:18:25;;;;;;;0.30;0.30;;;13.00;99.90;;;;;;5076173;28;20465;-84
2023/02/18 10:20:57;;;;;;;0.77;0.40;;;13.10;99.90;;;;;;5076548;28;20436;-83
2023/02/18 10:23:24;;;;;;;1.17;0.53;;;13.10;99.90;;;;;;5076505;28;20438;-85
2023/02/18 10:25:53;;;;;;;0.50;0.47;;;13.10;99.90;;;;;;5076559;28;20433;-85
2023/02/18 10:28:23;;;;;;;0.87;0.60;;;13.00;99.90;;;;;;5076391;28;20476;-85
2023/02/18 10:30:55;;;;;;;0.50;0.50;;;13.00;99.90;;;;;;5076411;28;20434;-85
2023/02/18 10:33:32;;;;;;;0.30;0.30;;;13.00;99.90;;;;;;5076314;28;20448;-84
2023/02/18 10:36:08;;;;;;;0.30;0.30;;;12.90;99.90;;;;;;5075631;28;20437;-83
2023/02/18 10:38:45;;;;;;;0.30;0.30;;;12.90;99.90;;;;;;5077022;28;20437;-84
2023/02/18 10:41:22;;;;;;;0.87;0.40;;;12.80;99.90;;;;;;5075958;28;20924;-85
2023/02/18 10:43:56;;;;;;;0.30;0.30;;;12.80;99.90;;;;;;5075757;28;21000;-84
2023/02/18 10:46:37;;;;;;;1.93;0.40;;;12.70;99.90;;;;;;5075713;28;20468;-84
2023/02/18 10:49:19;;;;;;;0.97;0.40;;;12.70;99.90;;;;;;5075630;28;20437;-84
2023/02/18 10:51:50;;;;;;;0.60;0.40;;;12.80;99.90;;;;;;5075927;28;20440;-84
2023/02/18 10:54:17;;;;;;;0.40;0.30;;;12.90;99.90;;;;;;5075899;28;20433;-84
2023/02/18 10:56:50;;;;;;;0.30;0.30;;;12.80;99.90;;;;;;5075800;28;20481;-84
2023/02/18 10:59:21;;;;;;;1.90;0.50;;;12.90;99.90;;;;;;5075905;28;20901;-84
2023/02/18 11:01:56;;;;;;;0.53;0.30;;;12.90;99.90;;;;;;5075753;28;20450;-85
2023/02/18 11:04:26;;;;;;;0.30;0.30;;;12.90;99.90;;;;;;5075741;28;20465;-84
2023/02/18 11:06:53;;;;;;;0.40;0.30;;;12.80;99.90;;;;;;5075296;28;20484;-85
2023/02/18 11:09:30;;;;;;;0.37;0.37;;;12.80;99.90;;;;;;5075684;28;20445;-84
2023/02/18 11:12:05;;;;;;;0.30;0.30;;;13.00;99.90;;;;;;5075600;28;20498;-85
2023/02/18 11:14:42;;;;;;;0.80;0.50;;;13.00;99.90;;;;;;5075435;28;20429;-85
2023/02/18 11:17:19;;;;;;;0.40;0.30;;;13.20;99.90;;;;;;5075601;28;20472;-83
2023/02/18 11:19:53;;;;;;;0.53;0.50;;;13.30;99.90;;;;;;5075346;28;20951;-84
2023/02/18 11:22:22;;;;;;;0.30;0.30;;;13.30;99.90;;;;;;5075357;28;20943;-84
2023/02/18 11:24:53;;;;;;;0.40;0.30;;;13.20;99.90;;;;;;5075291;28;20497;-86
2023/02/18 11:27:25;;;;;;;0.50;0.40;;;13.20;99.90;;;;;;5075012;28;20973;-85
2023/02/18 11:29:55;;;;;;;0.30;0.30;;;13.20;99.90;;;;;;5075296;28;20438;-84
2023/02/18 11:32:26;;;;;;;0.30;0.23;;;13.10;99.90;;;;;;5075460;28;20528;-85
2023/02/18 11:34:52;;;;;;;0.60;0.40;;;13.10;99.90;;;;;;5075191;28;20453;-85
2023/02/18 11:37:21;;;;;;;0.40;0.40;;;13.10;99.90;;;;;;5074657;28;20528;-84
2023/02/18 11:39:55;;;;;;;0.40;0.30;;;13.20;99.90;;;;;;5075089;28;20447;-85
2023/02/18 11:42:26;;;;;;;0.47;0.40;;;13.30;99.90;;;;;;5074724;28;20448;-83
2023/02/18 11:44:55;;;;;;;0.37;0.30;;;13.30;99.90;;;;;;5074944;28;20526;-84
2023/02/18 11:47:25;;;;;;;0.50;0.47;;;13.30;99.90;;;;;;5074881;28;20477;-84
2023/02/18 11:50:16;;;;;;;0.40;0.30;;;13.30;99.90;;;;;;5074930;28;20445;-84
2023/02/18 11:52:47;;;;;;;0.40;0.30;;;13.40;99.90;;;;;;5074822;28;20434;-84
2023/02/18 11:55:19;;;;;;;1.23;0.30;;;13.60;99.90;;;;;;5074802;28;20422;-84
2023/02/18 11:57:56;;;;;;;0.40;0.30;;;13.60;99.90;;;;;;5074639;28;20477;-84
2023/02/18 12:00:31;;;;;;;0.40;0.40;;;13.70;99.90;;;;;;5074676;28;20787;-84
2023/02/18 12:03:00;;;;;;;0.60;0.30;;;13.70;99.90;;;;;;5074663;28;20447;-84
2023/02/18 12:05:28;;;;;;;0.30;0.30;;;13.70;99.90;;;;;;5074433;28;20481;-84
2023/02/18 12:07:59;;;;;;;0.40;0.30;;;13.80;99.90;;;;;;5074400;28;20479;-84
2023/02/18 12:10:29;;;;;;;0.50;0.40;;;13.80;99.90;;;;;;5074193;28;20438;-83
2023/02/18 12:13:02;;;;;;;0.50;0.30;;;13.80;99.90;;;;;;5074391;28;20434;-84
2023/02/18 12:15:46;;;;;;;0.70;0.40;;;13.80;99.90;;;;;;5074330;28;20785;-84
2023/02/18 12:18:43;;;;;;;0.40;0.30;;;13.80;99.90;;;;;;5074250;28;20473;-83
2023/02/18 12:21:26;;;;;;;1.53;0.40;;;13.70;99.90;;;;;;5071577;28;20461;-84
2023/02/18 12:24:03;;;;;;;0.47;0.37;;;13.50;99.90;;;;;;5074072;28;20530;-84
2023/02/18 12:26:37;;;;;;;0.50;0.30;;;13.50;99.90;;;;;;5074195;28;20468;-84
2023/02/18 12:29:19;;;;;;;0.40;0.30;;;13.40;99.90;;;;;;5073894;28;20433;-84
2023/02/18 12:31:58;;;;;;;0.57;0.57;;;13.40;99.90;;;;;;5073947;28;20441;-84
2023/02/18 12:34:36;;;;;;;0.40;0.30;;;13.40;99.90;;;;;;5074032;28;20433;-84
2023/02/18 12:37:20;;;;;;;1.10;0.50;;;13.40;99.90;;;;;;5073580;28;20481;-83
2023/02/18 12:40:07;;;;;;;0.50;0.30;;;13.40;99.90;;;;;;5073916;28;20413;-83
2023/02/18 12:42:52;;;;;;;1.27;0.50;;;13.40;99.90;;;;;;5073563;28;20434;-83
2023/02/18 12:45:39;;;;;;;0.40;0.30;;;13.50;99.90;;;;;;5073756;28;20470;-84
2023/02/18 12:48:20;;;;;;;0.40;0.40;;;13.50;99.90;;;;;;5073798;28;20488;-84
2023/02/18 12:51:04;;;;;;;0.30;0.30;;;13.60;99.90;;;;;;5073740;28;20429;-84
2023/02/18 12:53:45;;;;;;;0.50;0.30;;;13.50;99.90;;;;;;5073455;28;20934;-83
2023/02/18 12:56:34;;;;;;;0.67;0.43;;;13.40;99.90;;;;;;5073591;28;20433;-84
2023/02/18 12:59:12;;;;;;;0.63;0.40;;;13.50;99.90;;;;;;5073629;28;20441;-83
2023/02/18 13:01:49;;;;;;;1.60;0.53;;;13.50;99.90;;;;;;5073585;28;20433;-83
2023/02/18 13:04:30;;;;;;;0.60;0.40;;;13.60;99.90;;;;;;5073473;28;20491;-83
2023/02/18 13:07:12;;;;;;;1.17;0.50;;;13.60;99.90;;;;;;5073468;28;20470;-83